sensor_id;sensor_type;location;lat;lon;timestamp;P1;durP1;ratioP1;P2;durP2;ratioP2
67442;SDS011;54311;51.726;5.154;2023-06-22T00:00:50;9.13;;;8.43;;
67442;SDS011;54311;51.726;5.154;2023-06-22T00:03:17;15.18;;;8.90;;
67442;SDS011;54311;51.726;5.154;2023-06-22T00:05:43;10.02;;;9.15;;
67442;SDS011;54311;51.726;5.154;2023-06-22T00:08:08;9.75;;;8.88;;
67442;SDS011;54311;51.726;5.154;2023-06-22T00:10:34;9.65;;;8.93;;
67442;SDS011;54311;51.726;5.154;2023-06-22T00:13:00;9.80;;;9.00;;
67442;SDS011;54311;51.726;5.154;2023-06-22T00:15:25;11.65;;;8.93;;
67442;SDS011;54311;51.726;5.154;2023-06-22T00:17:50;10.13;;;9.13;;
67442;SDS011;54311;51.726;5.154;2023-06-22T00:20:16;10.77;;;9.77;;
67442;SDS011;54311;51.726;5.154;2023-06-22T00:22:43;10.30;;;9.40;;
67442;SDS011;54311;51.726;5.154;2023-06-22T00:25:08;10.52;;;9.45;;
67442;SDS011;54311;51.726;5.154;2023-06-22T00:27:34;10.43;;;9.48;;
67442;SDS011;54311;51.726;5.154;2023-06-22T00:30:00;10.00;;;9.10;;
67442;SDS011;54311;51.726;5.154;2023-06-22T00:32:25;10.32;;;9.32;;
67442;SDS011;54311;51.726;5.154;2023-06-22T00:34:52;10.85;;;10.00;;
67442;SDS011;54311;51.726;5.154;2023-06-22T00:37:17;10.35;;;9.38;;
67442;SDS011;54311;51.726;5.154;2023-06-22T00:39:43;12.00;;;10.13;;
67442;SDS011;54311;51.726;5.154;2023-06-22T00:42:08;10.57;;;9.63;;
67442;SDS011;54311;51.726;5.154;2023-06-22T00:44:34;10.70;;;9.75;;
67442;SDS011;54311;51.726;5.154;2023-06-22T00:47:00;10.23;;;9.40;;
67442;SDS011;54311;51.726;5.154;2023-06-22T00:49:26;11.07;;;10.07;;
67442;SDS011;54311;51.726;5.154;2023-06-22T00:51:51;12.82;;;11.20;;
67442;SDS011;54311;51.726;5.154;2023-06-22T00:54:17;11.77;;;10.57;;
67442;SDS011;54311;51.726;5.154;2023-06-22T00:56:53;11.83;;;10.83;;
67442;SDS011;54311;51.726;5.154;2023-06-22T00:59:22;11.73;;;10.38;;
67442;SDS011;54311;51.726;5.154;2023-06-22T01:01:48;11.60;;;10.70;;
67442;SDS011;54311;51.726;5.154;2023-06-22T01:04:13;11.40;;;10.43;;
67442;SDS011;54311;51.726;5.154;2023-06-22T01:06:41;12.77;;;11.43;;
67442;SDS011;54311;51.726;5.154;2023-06-22T01:09:22;10.85;;;9.85;;
67442;SDS011;54311;51.726;5.154;2023-06-22T01:11:57;12.63;;;11.32;;
67442;SDS011;54311;51.726;5.154;2023-06-22T01:16:54;13.15;;;11.95;;
67442;SDS011;54311;51.726;5.154;2023-06-22T01:19:43;16.55;;;12.00;;
67442;SDS011;54311;51.726;5.154;2023-06-22T01:22:12;14.57;;;13.18;;
67442;SDS011;54311;51.726;5.154;2023-06-22T01:27:39;14.88;;;13.50;;
67442;SDS011;54311;51.726;5.154;2023-06-22T01:30:11;13.73;;;12.52;;
67442;SDS011;54311;51.726;5.154;2023-06-22T01:32:38;12.88;;;11.75;;
67442;SDS011;54311;51.726;5.154;2023-06-22T01:35:05;16.75;;;13.50;;
67442;SDS011;54311;51.726;5.154;2023-06-22T01:37:33;15.85;;;14.25;;
67442;SDS011;54311;51.726;5.154;2023-06-22T01:39:59;14.75;;;13.38;;
67442;SDS011;54311;51.726;5.154;2023-06-22T01:42:25;15.18;;;13.65;;
67442;SDS011;54311;51.726;5.154;2023-06-22T01:44:52;15.57;;;13.65;;
67442;SDS011;54311;51.726;5.154;2023-06-22T01:47:18;15.13;;;13.52;;
67442;SDS011;54311;51.726;5.154;2023-06-22T01:49:44;14.70;;;13.35;;
67442;SDS011;54311;51.726;5.154;2023-06-22T01:52:11;14.93;;;13.52;;
67442;SDS011;54311;51.726;5.154;2023-06-22T01:54:36;15.13;;;13.63;;
67442;SDS011;54311;51.726;5.154;2023-06-22T01:57:03;15.95;;;12.85;;
67442;SDS011;54311;51.726;5.154;2023-06-22T01:59:31;14.75;;;13.35;;
67442;SDS011;54311;51.726;5.154;2023-06-22T02:02:01;14.43;;;13.02;;
67442;SDS011;54311;51.726;5.154;2023-06-22T02:04:36;15.82;;;13.02;;
67442;SDS011;54311;51.726;5.154;2023-06-22T02:07:05;15.37;;;13.83;;
67442;SDS011;54311;51.726;5.154;2023-06-22T02:09:32;14.55;;;13.25;;
67442;SDS011;54311;51.726;5.154;2023-06-22T02:11:59;15.35;;;13.32;;
67442;SDS011;54311;51.726;5.154;2023-06-22T02:14:25;14.25;;;13.10;;
67442;SDS011;54311;51.726;5.154;2023-06-22T02:16:51;14.70;;;13.40;;
67442;SDS011;54311;51.726;5.154;2023-06-22T02:19:16;15.20;;;13.55;;
67442;SDS011;54311;51.726;5.154;2023-06-22T02:21:43;14.45;;;13.25;;
67442;SDS011;54311;51.726;5.154;2023-06-22T02:24:09;14.73;;;13.32;;
67442;SDS011;54311;51.726;5.154;2023-06-22T02:26:35;15.45;;;13.68;;
67442;SDS011;54311;51.726;5.154;2023-06-22T02:29:01;15.27;;;13.90;;
67442;SDS011;54311;51.726;5.154;2023-06-22T02:31:26;15.48;;;13.90;;
67442;SDS011;54311;51.726;5.154;2023-06-22T02:33:55;15.13;;;13.57;;
67442;SDS011;54311;51.726;5.154;2023-06-22T02:36:23;17.05;;;15.30;;
67442;SDS011;54311;51.726;5.154;2023-06-22T02:38:48;16.60;;;15.00;;
67442;SDS011;54311;51.726;5.154;2023-06-22T02:41:14;15.90;;;14.20;;
67442;SDS011;54311;51.726;5.154;2023-06-22T02:43:44;18.73;;;15.30;;
67442;SDS011;54311;51.726;5.154;2023-06-22T02:46:10;17.33;;;15.15;;
67442;SDS011;54311;51.726;5.154;2023-06-22T02:48:36;15.68;;;14.20;;
67442;SDS011;54311;51.726;5.154;2023-06-22T02:51:01;16.05;;;13.95;;
67442;SDS011;54311;51.726;5.154;2023-06-22T02:53:26;17.13;;;15.48;;
67442;SDS011;54311;51.726;5.154;2023-06-22T02:55:52;16.88;;;15.18;;
67442;SDS011;54311;51.726;5.154;2023-06-22T02:58:17;16.67;;;15.00;;
67442;SDS011;54311;51.726;5.154;2023-06-22T03:00:43;15.93;;;14.52;;
67442;SDS011;54311;51.726;5.154;2023-06-22T03:03:08;15.70;;;14.25;;
67442;SDS011;54311;51.726;5.154;2023-06-22T03:05:33;15.45;;;13.95;;
67442;SDS011;54311;51.726;5.154;2023-06-22T03:08:00;17.42;;;15.50;;
67442;SDS011;54311;51.726;5.154;2023-06-22T03:10:25;16.20;;;14.50;;
67442;SDS011;54311;51.726;5.154;2023-06-22T03:12:51;15.43;;;14.02;;
67442;SDS011;54311;51.726;5.154;2023-06-22T03:15:16;16.73;;;15.27;;
67442;SDS011;54311;51.726;5.154;2023-06-22T03:17:44;16.70;;;15.07;;
67442;SDS011;54311;51.726;5.154;2023-06-22T03:20:10;18.17;;;15.10;;
67442;SDS011;54311;51.726;5.154;2023-06-22T03:22:39;17.67;;;15.98;;
67442;SDS011;54311;51.726;5.154;2023-06-22T03:25:06;19.60;;;15.68;;
67442;SDS011;54311;51.726;5.154;2023-06-22T03:27:41;16.08;;;14.48;;
67442;SDS011;54311;51.726;5.154;2023-06-22T03:30:09;17.02;;;15.40;;
67442;SDS011;54311;51.726;5.154;2023-06-22T03:32:35;17.13;;;15.27;;
67442;SDS011;54311;51.726;5.154;2023-06-22T03:35:01;18.58;;;14.43;;
67442;SDS011;54311;51.726;5.154;2023-06-22T03:37:27;17.10;;;15.60;;
67442;SDS011;54311;51.726;5.154;2023-06-22T03:39:53;17.38;;;15.65;;
67442;SDS011;54311;51.726;5.154;2023-06-22T03:42:18;17.52;;;15.38;;
67442;SDS011;54311;51.726;5.154;2023-06-22T03:44:43;16.60;;;15.10;;
67442;SDS011;54311;51.726;5.154;2023-06-22T03:47:09;16.48;;;15.00;;
67442;SDS011;54311;51.726;5.154;2023-06-22T03:49:34;17.35;;;15.50;;
67442;SDS011;54311;51.726;5.154;2023-06-22T03:52:00;16.77;;;15.38;;
67442;SDS011;54311;51.726;5.154;2023-06-22T03:54:29;16.73;;;15.25;;
67442;SDS011;54311;51.726;5.154;2023-06-22T03:56:56;17.17;;;15.68;;
67442;SDS011;54311;51.726;5.154;2023-06-22T03:59:21;18.30;;;16.48;;
67442;SDS011;54311;51.726;5.154;2023-06-22T04:01:47;16.98;;;15.27;;
67442;SDS011;54311;51.726;5.154;2023-06-22T04:04:12;16.98;;;15.40;;
67442;SDS011;54311;51.726;5.154;2023-06-22T04:06:37;17.45;;;15.70;;
67442;SDS011;54311;51.726;5.154;2023-06-22T04:09:03;16.63;;;14.93;;
67442;SDS011;54311;51.726;5.154;2023-06-22T04:11:30;18.08;;;16.30;;
67442;SDS011;54311;51.726;5.154;2023-06-22T04:13:55;18.40;;;16.25;;
67442;SDS011;54311;51.726;5.154;2023-06-22T04:16:20;16.77;;;15.10;;
67442;SDS011;54311;51.726;5.154;2023-06-22T04:18:46;18.77;;;15.02;;
67442;SDS011;54311;51.726;5.154;2023-06-22T04:21:11;16.88;;;14.73;;
67442;SDS011;54311;51.726;5.154;2023-06-22T04:23:36;16.48;;;14.75;;
67442;SDS011;54311;51.726;5.154;2023-06-22T04:26:02;19.88;;;15.40;;
67442;SDS011;54311;51.726;5.154;2023-06-22T04:28:27;23.95;;;14.45;;
67442;SDS011;54311;51.726;5.154;2023-06-22T04:30:52;15.85;;;14.38;;
67442;SDS011;54311;51.726;5.154;2023-06-22T04:33:18;16.45;;;14.75;;
67442;SDS011;54311;51.726;5.154;2023-06-22T04:35:46;18.88;;;14.90;;
67442;SDS011;54311;51.726;5.154;2023-06-22T04:38:12;16.70;;;14.75;;
67442;SDS011;54311;51.726;5.154;2023-06-22T04:40:38;15.90;;;14.30;;
67442;SDS011;54311;51.726;5.154;2023-06-22T04:43:04;16.83;;;15.23;;
67442;SDS011;54311;51.726;5.154;2023-06-22T04:45:31;16.40;;;14.93;;
67442;SDS011;54311;51.726;5.154;2023-06-22T04:47:57;16.33;;;14.82;;
67442;SDS011;54311;51.726;5.154;2023-06-22T04:50:23;17.20;;;15.45;;
67442;SDS011;54311;51.726;5.154;2023-06-22T04:52:48;17.30;;;15.52;;
67442;SDS011;54311;51.726;5.154;2023-06-22T04:55:14;17.40;;;15.70;;
67442;SDS011;54311;51.726;5.154;2023-06-22T04:57:46;16.27;;;14.73;;
67442;SDS011;54311;51.726;5.154;2023-06-22T05:00:15;15.40;;;13.95;;
67442;SDS011;54311;51.726;5.154;2023-06-22T05:02:43;23.48;;;15.40;;
67442;SDS011;54311;51.726;5.154;2023-06-22T05:05:10;18.75;;;14.02;;
67442;SDS011;54311;51.726;5.154;2023-06-22T05:07:38;15.45;;;14.15;;
67442;SDS011;54311;51.726;5.154;2023-06-22T05:10:07;15.52;;;13.88;;
67442;SDS011;54311;51.726;5.154;2023-06-22T05:12:33;16.23;;;14.63;;
67442;SDS011;54311;51.726;5.154;2023-06-22T05:14:58;15.60;;;14.13;;
67442;SDS011;54311;51.726;5.154;2023-06-22T05:17:24;16.45;;;13.15;;
67442;SDS011;54311;51.726;5.154;2023-06-22T05:19:50;19.88;;;14.10;;
67442;SDS011;54311;51.726;5.154;2023-06-22T05:22:15;15.25;;;13.85;;
67442;SDS011;54311;51.726;5.154;2023-06-22T05:24:41;15.07;;;13.68;;
67442;SDS011;54311;51.726;5.154;2023-06-22T05:27:07;18.40;;;13.32;;
67442;SDS011;54311;51.726;5.154;2023-06-22T05:29:33;19.63;;;14.50;;
67442;SDS011;54311;51.726;5.154;2023-06-22T05:31:58;15.20;;;13.60;;
67442;SDS011;54311;51.726;5.154;2023-06-22T05:34:24;14.25;;;12.70;;
67442;SDS011;54311;51.726;5.154;2023-06-22T05:36:49;16.98;;;13.50;;
67442;SDS011;54311;51.726;5.154;2023-06-22T05:39:15;15.23;;;13.75;;
67442;SDS011;54311;51.726;5.154;2023-06-22T05:41:40;13.65;;;12.23;;
67442;SDS011;54311;51.726;5.154;2023-06-22T05:44:06;14.13;;;12.80;;
67442;SDS011;54311;51.726;5.154;2023-06-22T05:46:32;14.13;;;11.93;;
67442;SDS011;54311;51.726;5.154;2023-06-22T05:48:57;16.75;;;13.07;;
67442;SDS011;54311;51.726;5.154;2023-06-22T05:51:22;14.45;;;13.05;;
67442;SDS011;54311;51.726;5.154;2023-06-22T05:53:48;15.93;;;13.05;;
67442;SDS011;54311;51.726;5.154;2023-06-22T05:56:15;15.93;;;13.77;;
67442;SDS011;54311;51.726;5.154;2023-06-22T05:58:40;16.30;;;14.52;;
67442;SDS011;54311;51.726;5.154;2023-06-22T06:01:06;14.88;;;12.88;;
67442;SDS011;54311;51.726;5.154;2023-06-22T06:03:31;14.48;;;12.85;;
67442;SDS011;54311;51.726;5.154;2023-06-22T06:05:57;14.73;;;13.43;;
67442;SDS011;54311;51.726;5.154;2023-06-22T06:08:22;15.18;;;13.68;;
67442;SDS011;54311;51.726;5.154;2023-06-22T06:10:47;16.20;;;14.57;;
67442;SDS011;54311;51.726;5.154;2023-06-22T06:13:13;16.33;;;13.98;;
67442;SDS011;54311;51.726;5.154;2023-06-22T06:15:38;16.35;;;14.70;;
67442;SDS011;54311;51.726;5.154;2023-06-22T06:18:04;16.83;;;15.32;;
67442;SDS011;54311;51.726;5.154;2023-06-22T06:20:30;17.55;;;15.23;;
67442;SDS011;54311;51.726;5.154;2023-06-22T06:22:56;16.42;;;14.82;;
67442;SDS011;54311;51.726;5.154;2023-06-22T06:25:21;18.17;;;16.02;;
67442;SDS011;54311;51.726;5.154;2023-06-22T06:27:48;17.63;;;15.98;;
67442;SDS011;54311;51.726;5.154;2023-06-22T06:30:15;17.85;;;16.15;;
67442;SDS011;54311;51.726;5.154;2023-06-22T06:32:41;17.75;;;15.88;;
67442;SDS011;54311;51.726;5.154;2023-06-22T06:35:08;18.60;;;15.07;;
67442;SDS011;54311;51.726;5.154;2023-06-22T06:37:38;17.83;;;15.90;;
67442;SDS011;54311;51.726;5.154;2023-06-22T06:40:05;17.45;;;15.63;;
67442;SDS011;54311;51.726;5.154;2023-06-22T06:42:36;19.35;;;17.40;;
67442;SDS011;54311;51.726;5.154;2023-06-22T06:45:04;20.15;;;17.13;;
67442;SDS011;54311;51.726;5.154;2023-06-22T06:47:30;20.30;;;18.10;;
67442;SDS011;54311;51.726;5.154;2023-06-22T06:49:56;19.60;;;17.58;;
67442;SDS011;54311;51.726;5.154;2023-06-22T06:52:21;19.67;;;17.67;;
67442;SDS011;54311;51.726;5.154;2023-06-22T06:54:47;20.58;;;18.48;;
67442;SDS011;54311;51.726;5.154;2023-06-22T06:57:12;19.90;;;17.70;;
67442;SDS011;54311;51.726;5.154;2023-06-22T06:59:38;19.42;;;17.33;;
67442;SDS011;54311;51.726;5.154;2023-06-22T07:02:04;20.00;;;16.88;;
67442;SDS011;54311;51.726;5.154;2023-06-22T07:04:30;19.10;;;17.20;;
67442;SDS011;54311;51.726;5.154;2023-06-22T07:06:55;20.35;;;17.20;;
67442;SDS011;54311;51.726;5.154;2023-06-22T07:09:20;21.83;;;18.42;;
67442;SDS011;54311;51.726;5.154;2023-06-22T07:11:46;21.13;;;18.88;;
67442;SDS011;54311;51.726;5.154;2023-06-22T07:14:11;20.48;;;18.27;;
67442;SDS011;54311;51.726;5.154;2023-06-22T07:16:36;19.27;;;17.13;;
67442;SDS011;54311;51.726;5.154;2023-06-22T07:19:02;21.55;;;18.25;;
67442;SDS011;54311;51.726;5.154;2023-06-22T07:21:27;20.50;;;18.50;;
67442;SDS011;54311;51.726;5.154;2023-06-22T07:23:52;23.23;;;19.80;;
67442;SDS011;54311;51.726;5.154;2023-06-22T07:26:19;21.77;;;19.70;;
67442;SDS011;54311;51.726;5.154;2023-06-22T07:28:44;22.33;;;18.67;;
67442;SDS011;54311;51.726;5.154;2023-06-22T07:31:09;24.63;;;20.73;;
67442;SDS011;54311;51.726;5.154;2023-06-22T07:33:35;24.05;;;20.35;;
67442;SDS011;54311;51.726;5.154;2023-06-22T07:36:00;25.33;;;19.65;;
67442;SDS011;54311;51.726;5.154;2023-06-22T07:38:27;21.75;;;19.50;;
67442;SDS011;54311;51.726;5.154;2023-06-22T07:40:53;22.58;;;20.50;;
67442;SDS011;54311;51.726;5.154;2023-06-22T07:43:18;22.17;;;19.88;;
67442;SDS011;54311;51.726;5.154;2023-06-22T07:45:50;22.70;;;20.35;;
67442;SDS011;54311;51.726;5.154;2023-06-22T07:48:17;25.33;;;21.10;;
67442;SDS011;54311;51.726;5.154;2023-06-22T07:50:45;21.38;;;19.20;;
67442;SDS011;54311;51.726;5.154;2023-06-22T07:53:10;23.30;;;20.88;;
67442;SDS011;54311;51.726;5.154;2023-06-22T07:55:35;21.85;;;19.85;;
67442;SDS011;54311;51.726;5.154;2023-06-22T07:58:00;24.48;;;22.10;;
67442;SDS011;54311;51.726;5.154;2023-06-22T08:00:26;23.73;;;20.92;;
67442;SDS011;54311;51.726;5.154;2023-06-22T08:02:51;23.05;;;20.65;;
67442;SDS011;54311;51.726;5.154;2023-06-22T08:05:17;23.63;;;21.23;;
67442;SDS011;54311;51.726;5.154;2023-06-22T08:07:43;24.63;;;22.13;;
67442;SDS011;54311;51.726;5.154;2023-06-22T08:10:13;33.03;;;21.67;;
67442;SDS011;54311;51.726;5.154;2023-06-22T08:12:41;23.95;;;20.98;;
67442;SDS011;54311;51.726;5.154;2023-06-22T08:15:07;23.88;;;20.92;;
67442;SDS011;54311;51.726;5.154;2023-06-22T08:17:33;22.50;;;19.33;;
67442;SDS011;54311;51.726;5.154;2023-06-22T08:19:58;24.08;;;21.58;;
67442;SDS011;54311;51.726;5.154;2023-06-22T08:22:23;22.45;;;19.95;;
67442;SDS011;54311;51.726;5.154;2023-06-22T08:24:50;22.35;;;19.40;;
67442;SDS011;54311;51.726;5.154;2023-06-22T08:27:15;23.85;;;21.30;;
67442;SDS011;54311;51.726;5.154;2023-06-22T08:29:43;24.48;;;21.35;;
67442;SDS011;54311;51.726;5.154;2023-06-22T08:32:10;22.50;;;20.23;;
67442;SDS011;54311;51.726;5.154;2023-06-22T08:34:36;24.55;;;21.23;;
67442;SDS011;54311;51.726;5.154;2023-06-22T08:37:02;25.48;;;21.83;;
67442;SDS011;54311;51.726;5.154;2023-06-22T08:39:31;24.63;;;19.98;;
67442;SDS011;54311;51.726;5.154;2023-06-22T08:41:57;26.02;;;19.92;;
67442;SDS011;54311;51.726;5.154;2023-06-22T08:44:22;22.15;;;19.08;;
67442;SDS011;54311;51.726;5.154;2023-06-22T08:46:47;22.08;;;18.95;;
67442;SDS011;54311;51.726;5.154;2023-06-22T08:49:13;21.27;;;19.15;;
67442;SDS011;54311;51.726;5.154;2023-06-22T08:51:38;20.15;;;17.73;;
67442;SDS011;54311;51.726;5.154;2023-06-22T08:54:04;21.33;;;18.70;;
67442;SDS011;54311;51.726;5.154;2023-06-22T08:56:30;20.77;;;17.88;;
67442;SDS011;54311;51.726;5.154;2023-06-22T08:58:55;20.95;;;18.75;;
67442;SDS011;54311;51.726;5.154;2023-06-22T09:01:21;21.88;;;19.67;;
67442;SDS011;54311;51.726;5.154;2023-06-22T09:03:47;20.92;;;18.83;;
67442;SDS011;54311;51.726;5.154;2023-06-22T09:06:22;20.08;;;18.02;;
67442;SDS011;54311;51.726;5.154;2023-06-22T09:08:47;23.60;;;19.60;;
67442;SDS011;54311;51.726;5.154;2023-06-22T09:11:14;22.40;;;19.73;;
67442;SDS011;54311;51.726;5.154;2023-06-22T09:13:39;27.80;;;18.75;;
67442;SDS011;54311;51.726;5.154;2023-06-22T09:16:04;20.52;;;18.50;;
67442;SDS011;54311;51.726;5.154;2023-06-22T09:18:30;19.95;;;18.15;;
67442;SDS011;54311;51.726;5.154;2023-06-22T09:20:55;25.27;;;19.88;;
67442;SDS011;54311;51.726;5.154;2023-06-22T09:23:20;20.67;;;18.58;;
67442;SDS011;54311;51.726;5.154;2023-06-22T09:25:46;19.55;;;17.52;;
67442;SDS011;54311;51.726;5.154;2023-06-22T09:28:12;21.98;;;17.20;;
67442;SDS011;54311;51.726;5.154;2023-06-22T09:30:39;19.27;;;17.45;;
67442;SDS011;54311;51.726;5.154;2023-06-22T09:33:04;19.48;;;17.48;;
67442;SDS011;54311;51.726;5.154;2023-06-22T09:35:29;19.85;;;17.42;;
67442;SDS011;54311;51.726;5.154;2023-06-22T09:37:55;18.40;;;16.50;;
67442;SDS011;54311;51.726;5.154;2023-06-22T09:40:20;22.10;;;18.08;;
67442;SDS011;54311;51.726;5.154;2023-06-22T09:42:45;20.42;;;17.08;;
67442;SDS011;54311;51.726;5.154;2023-06-22T09:45:11;17.77;;;16.17;;
67442;SDS011;54311;51.726;5.154;2023-06-22T09:47:36;18.20;;;16.50;;
67442;SDS011;54311;51.726;5.154;2023-06-22T09:50:03;18.55;;;15.45;;
67442;SDS011;54311;51.726;5.154;2023-06-22T09:52:29;16.33;;;14.82;;
67442;SDS011;54311;51.726;5.154;2023-06-22T09:54:54;17.70;;;15.80;;
67442;SDS011;54311;51.726;5.154;2023-06-22T09:57:20;16.95;;;15.20;;
67442;SDS011;54311;51.726;5.154;2023-06-22T09:59:45;17.15;;;15.43;;
67442;SDS011;54311;51.726;5.154;2023-06-22T10:02:10;15.13;;;13.75;;
67442;SDS011;54311;51.726;5.154;2023-06-22T10:04:36;15.38;;;13.93;;
67442;SDS011;54311;51.726;5.154;2023-06-22T10:07:02;15.68;;;14.10;;
67442;SDS011;54311;51.726;5.154;2023-06-22T10:09:27;15.90;;;13.35;;
67442;SDS011;54311;51.726;5.154;2023-06-22T10:11:53;14.82;;;13.43;;
67442;SDS011;54311;51.726;5.154;2023-06-22T10:14:18;13.73;;;12.43;;
67442;SDS011;54311;51.726;5.154;2023-06-22T10:16:43;14.18;;;12.90;;
67442;SDS011;54311;51.726;5.154;2023-06-22T10:19:09;14.10;;;12.30;;
67442;SDS011;54311;51.726;5.154;2023-06-22T10:21:34;16.67;;;11.77;;
67442;SDS011;54311;51.726;5.154;2023-06-22T10:24:00;20.23;;;12.60;;
67442;SDS011;54311;51.726;5.154;2023-06-22T10:26:31;13.95;;;12.32;;
67442;SDS011;54311;51.726;5.154;2023-06-22T10:29:00;17.02;;;12.45;;
67442;SDS011;54311;51.726;5.154;2023-06-22T10:31:25;17.17;;;12.50;;
67442;SDS011;54311;51.726;5.154;2023-06-22T10:33:52;13.52;;;12.13;;
67442;SDS011;54311;51.726;5.154;2023-06-22T10:36:18;14.18;;;12.40;;
67442;SDS011;54311;51.726;5.154;2023-06-22T10:38:44;13.43;;;12.15;;
67442;SDS011;54311;51.726;5.154;2023-06-22T10:41:09;13.95;;;12.23;;
67442;SDS011;54311;51.726;5.154;2023-06-22T10:43:34;13.13;;;12.05;;
67442;SDS011;54311;51.726;5.154;2023-06-22T10:46:00;13.85;;;12.50;;
67442;SDS011;54311;51.726;5.154;2023-06-22T10:48:25;13.07;;;11.77;;
67442;SDS011;54311;51.726;5.154;2023-06-22T10:50:50;12.30;;;11.10;;
67442;SDS011;54311;51.726;5.154;2023-06-22T10:53:16;17.83;;;11.35;;
67442;SDS011;54311;51.726;5.154;2023-06-22T10:55:41;13.75;;;10.57;;
67442;SDS011;54311;51.726;5.154;2023-06-22T10:58:07;13.15;;;11.75;;
67442;SDS011;54311;51.726;5.154;2023-06-22T11:00:32;11.35;;;10.32;;
67442;SDS011;54311;51.726;5.154;2023-06-22T11:02:57;10.65;;;9.75;;
67442;SDS011;54311;51.726;5.154;2023-06-22T11:05:23;10.85;;;9.80;;
67442;SDS011;54311;51.726;5.154;2023-06-22T11:07:48;12.30;;;10.25;;
67442;SDS011;54311;51.726;5.154;2023-06-22T11:10:14;11.43;;;9.77;;
67442;SDS011;54311;51.726;5.154;2023-06-22T11:12:40;15.45;;;9.95;;
67442;SDS011;54311;51.726;5.154;2023-06-22T11:15:05;10.48;;;9.68;;
67442;SDS011;54311;51.726;5.154;2023-06-22T11:17:31;11.15;;;10.07;;
67442;SDS011;54311;51.726;5.154;2023-06-22T11:19:56;10.38;;;9.55;;
67442;SDS011;54311;51.726;5.154;2023-06-22T11:22:22;10.57;;;9.57;;
67442;SDS011;54311;51.726;5.154;2023-06-22T11:24:47;9.85;;;8.95;;
67442;SDS011;54311;51.726;5.154;2023-06-22T11:27:13;10.20;;;9.25;;
67442;SDS011;54311;51.726;5.154;2023-06-22T11:29:38;10.52;;;9.73;;
67442;SDS011;54311;51.726;5.154;2023-06-22T11:32:05;11.43;;;10.43;;
67442;SDS011;54311;51.726;5.154;2023-06-22T11:34:31;12.48;;;11.20;;
67442;SDS011;54311;51.726;5.154;2023-06-22T11:36:57;12.20;;;11.00;;
67442;SDS011;54311;51.726;5.154;2023-06-22T11:39:22;13.57;;;11.95;;
67442;SDS011;54311;51.726;5.154;2023-06-22T11:41:47;12.75;;;11.55;;
67442;SDS011;54311;51.726;5.154;2023-06-22T11:44:13;16.80;;;11.07;;
67442;SDS011;54311;51.726;5.154;2023-06-22T11:46:39;17.73;;;11.88;;
67442;SDS011;54311;51.726;5.154;2023-06-22T11:49:04;15.35;;;12.32;;
67442;SDS011;54311;51.726;5.154;2023-06-22T11:51:30;14.82;;;11.23;;
67442;SDS011;54311;51.726;5.154;2023-06-22T11:53:56;17.00;;;13.00;;
67442;SDS011;54311;51.726;5.154;2023-06-22T11:56:22;14.07;;;12.80;;
67442;SDS011;54311;51.726;5.154;2023-06-22T11:58:47;22.45;;;12.65;;
67442;SDS011;54311;51.726;5.154;2023-06-22T12:01:12;12.88;;;11.50;;
67442;SDS011;54311;51.726;5.154;2023-06-22T12:03:39;13.80;;;11.43;;
67442;SDS011;54311;51.726;5.154;2023-06-22T12:06:05;12.10;;;11.10;;
67442;SDS011;54311;51.726;5.154;2023-06-22T12:08:30;16.25;;;12.77;;
67442;SDS011;54311;51.726;5.154;2023-06-22T12:10:55;13.80;;;11.23;;
67442;SDS011;54311;51.726;5.154;2023-06-22T12:13:21;12.23;;;11.13;;
67442;SDS011;54311;51.726;5.154;2023-06-22T12:15:46;14.32;;;9.55;;
67442;SDS011;54311;51.726;5.154;2023-06-22T12:18:12;12.63;;;10.07;;
67442;SDS011;54311;51.726;5.154;2023-06-22T12:20:39;15.77;;;10.65;;
67442;SDS011;54311;51.726;5.154;2023-06-22T12:23:05;16.33;;;10.70;;
67442;SDS011;54311;51.726;5.154;2023-06-22T12:25:30;15.23;;;11.15;;
67442;SDS011;54311;51.726;5.154;2023-06-22T12:27:56;14.40;;;11.75;;
67442;SDS011;54311;51.726;5.154;2023-06-22T12:30:21;13.43;;;12.00;;
67442;SDS011;54311;51.726;5.154;2023-06-22T12:32:47;14.57;;;12.88;;
67442;SDS011;54311;51.726;5.154;2023-06-22T12:35:12;14.15;;;12.65;;
67442;SDS011;54311;51.726;5.154;2023-06-22T12:37:41;15.77;;;13.35;;
67442;SDS011;54311;51.726;5.154;2023-06-22T12:40:07;16.45;;;14.57;;
67442;SDS011;54311;51.726;5.154;2023-06-22T12:42:33;16.90;;;15.20;;
67442;SDS011;54311;51.726;5.154;2023-06-22T12:44:58;17.95;;;16.15;;
67442;SDS011;54311;51.726;5.154;2023-06-22T12:47:24;20.00;;;16.67;;
67442;SDS011;54311;51.726;5.154;2023-06-22T12:49:49;18.98;;;16.10;;
67442;SDS011;54311;51.726;5.154;2023-06-22T12:52:15;16.55;;;15.07;;
67442;SDS011;54311;51.726;5.154;2023-06-22T12:54:40;18.58;;;15.82;;
67442;SDS011;54311;51.726;5.154;2023-06-22T12:57:06;16.60;;;15.13;;
67442;SDS011;54311;51.726;5.154;2023-06-22T12:59:31;17.40;;;15.90;;
67442;SDS011;54311;51.726;5.154;2023-06-22T13:01:57;19.60;;;16.65;;
67442;SDS011;54311;51.726;5.154;2023-06-22T13:04:22;18.92;;;17.05;;
67442;SDS011;54311;51.726;5.154;2023-06-22T13:06:47;21.92;;;18.50;;
67442;SDS011;54311;51.726;5.154;2023-06-22T13:09:13;19.08;;;17.40;;
67442;SDS011;54311;51.726;5.154;2023-06-22T13:11:39;20.88;;;18.77;;
67442;SDS011;54311;51.726;5.154;2023-06-22T13:14:05;20.27;;;18.55;;
67442;SDS011;54311;51.726;5.154;2023-06-22T13:16:30;24.73;;;18.88;;
67442;SDS011;54311;51.726;5.154;2023-06-22T13:18:56;24.90;;;18.27;;
67442;SDS011;54311;51.726;5.154;2023-06-22T13:21:21;19.90;;;18.02;;
67442;SDS011;54311;51.726;5.154;2023-06-22T13:23:46;19.88;;;18.23;;
67442;SDS011;54311;51.726;5.154;2023-06-22T13:26:12;20.25;;;18.45;;
67442;SDS011;54311;51.726;5.154;2023-06-22T13:28:37;20.83;;;18.95;;
67442;SDS011;54311;51.726;5.154;2023-06-22T13:31:02;20.83;;;19.10;;
67442;SDS011;54311;51.726;5.154;2023-06-22T13:33:28;21.33;;;19.35;;
67442;SDS011;54311;51.726;5.154;2023-06-22T13:35:53;22.70;;;20.50;;
67442;SDS011;54311;51.726;5.154;2023-06-22T13:38:19;22.60;;;20.50;;
67442;SDS011;54311;51.726;5.154;2023-06-22T13:40:44;21.27;;;19.48;;
67442;SDS011;54311;51.726;5.154;2023-06-22T13:43:09;24.05;;;21.83;;
67442;SDS011;54311;51.726;5.154;2023-06-22T13:45:35;23.35;;;21.05;;
67442;SDS011;54311;51.726;5.154;2023-06-22T13:48:00;22.95;;;20.98;;
67442;SDS011;54311;51.726;5.154;2023-06-22T13:50:25;23.30;;;20.83;;
67442;SDS011;54311;51.726;5.154;2023-06-22T13:52:51;23.48;;;21.08;;
67442;SDS011;54311;51.726;5.154;2023-06-22T13:55:16;24.25;;;21.52;;
67442;SDS011;54311;51.726;5.154;2023-06-22T13:57:42;24.30;;;21.80;;
67442;SDS011;54311;51.726;5.154;2023-06-22T14:00:07;25.42;;;22.92;;
67442;SDS011;54311;51.726;5.154;2023-06-22T14:02:34;24.52;;;22.20;;
67442;SDS011;54311;51.726;5.154;2023-06-22T14:04:59;25.83;;;23.50;;
67442;SDS011;54311;51.726;5.154;2023-06-22T14:07:25;25.70;;;23.38;;
67442;SDS011;54311;51.726;5.154;2023-06-22T14:09:50;25.05;;;22.77;;
67442;SDS011;54311;51.726;5.154;2023-06-22T14:12:15;25.92;;;23.42;;
67442;SDS011;54311;51.726;5.154;2023-06-22T14:14:42;26.35;;;23.92;;
67442;SDS011;54311;51.726;5.154;2023-06-22T14:17:08;24.98;;;22.73;;
67442;SDS011;54311;51.726;5.154;2023-06-22T14:19:34;28.20;;;25.65;;
67442;SDS011;54311;51.726;5.154;2023-06-22T14:21:59;25.63;;;23.27;;